Kan 2 — T2ZB4 — position and weather

sailwx.info

Track history (hours):
 
Tides and Currents Weather Stations Pressure Air Temp Water Temp Dewpoint Dewpoint Depression Visibility Wind Speed Wind Dir Waves Ship Positions

Kan 2

Last reported at 2018-Jun-23 06:26 UTC. Time now 2018-Jun-23 06:29 UTC.
Position N 36°56' E 012°42'.

Length 149 m; draft 5.7 m.

Type: Ship. MMSI: 572907000.

Date/timePositionNaut miles runAvg speedWind from/ knotsBaromVisibWave heightAir tempDewpointWater temp
2018-Jun-23 06:26N 36°56' E 012°42'612.5
2018-Jun-23 05:57N 36°57' E 012°34'612.8
2018-Jun-23 05:28N 36°58' E 012°27'612.2
2018-Jun-23 04:57N 36°59' E 012°19'612.3
2018-Jun-23 04:29N 37°00' E 012°12'612.4
2018-Jun-23 04:00N 37°02' E 012°05'12911.9
2018-Jun-22 17:14N 37°27' E 009°26'28312.0
2018-Jun-21 17:37N 37°04' E 003°32'111.1
2018-Jun-21 17:30N 37°04' E 003°31'611.0
2018-Jun-21 17:00N 37°03' E 003°24'510.9
2018-Jun-21 16:30N 37°02' E 003°17'911.0
2018-Jun-21 15:39N 37°01' E 003°05'210.9
2018-Jun-21 15:29N 37°01' E 003°03'611.0
2018-Jun-21 14:58N 37°00' E 002°56'511.1
2018-Jun-21 14:30N 36°59' E 002°50'611.2
2018-Jun-21 13:57N 36°59' E 002°42'611.1
2018-Jun-21 13:25N 36°58' E 002°35'610.9
2018-Jun-21 12:51N 36°57' E 002°27'6711.8
2018-Jun-21 07:07N 36°48' E 001°03'612.3
2018-Jun-21 06:38N 36°47' E 000°56'212.2
2018-Jun-21 06:30N 36°47' E 000°54'812.3
2018-Jun-21 05:52N 36°46' E 000°44'412.4
2018-Jun-21 05:30N 36°46' E 000°39'612.4
2018-Jun-21 05:00N 36°45' E 000°31'612.2
2018-Jun-21 04:30N 36°44' E 000°23'612.0
2018-Jun-21 04:00N 36°42' E 000°16'611.5
2018-Jun-21 03:30N 36°42' E 000°09'611.3
2018-Jun-21 02:58N 36°41' E 000°02'511.2
2018-Jun-21 02:30N 36°40' W 000°05'611.3
2018-Jun-21 02:00N 36°39' W 000°12'611.5
2018-Jun-21 01:29N 36°38' W 000°19'611.4
2018-Jun-21 01:00N 36°37' W 000°26'611.2
2018-Jun-21 00:30N 36°36' W 000°33'611.3
2018-Jun-21 00:00N 36°36' W 000°40'611.2
2018-Jun-20 23:30N 36°35' W 000°47'611.5
2018-Jun-20 22:59N 36°33' W 000°54'511.6
2018-Jun-20 22:31N 36°32' W 001°01'1111.4
2018-Jun-20 21:35N 36°31' W 001°14'111.3
2018-Jun-20 21:27N 36°30' W 001°15'511.4
2018-Jun-20 21:00N 36°29' W 001°22'1112.1
2018-Jun-20 20:06N 36°27' W 001°35'212.5
2018-Jun-20 19:57N 36°27' W 001°37'612.6
2018-Jun-20 19:30N 36°26' W 001°44'31811.5
2018-Jun-19 15:46N 36°21' W 008°19'512.8
2018-Jun-19 15:20N 36°23' W 008°26'412.7
2018-Jun-19 15:00N 36°24' W 008°31'1812.6
2018-Jun-19 13:33N 36°29' W 008°53'112.6
2018-Jun-19 13:28N 36°29' W 008°54'912.4
2018-Jun-19 12:45N 36°31' W 009°05'312.2
2018-Jun-19 12:30N 36°32' W 009°08'612.3
2018-Jun-19 12:00N 36°34' W 009°16'611.8
2018-Jun-19 11:29N 36°38' W 009°21'912.1
2018-Jun-19 10:46N 36°44' W 009°29'312.2
2018-Jun-19 10:30N 36°46' W 009°31'5411.9
2018-Jun-19 05:58N 37°40' W 009°40'611.8
2018-Jun-19 05:29N 37°46' W 009°41'711.6
2018-Jun-19 04:54N 37°52' W 009°39'511.8
2018-Jun-19 04:30N 37°57' W 009°37'611.9
2018-Jun-19 04:00N 38°02' W 009°35'612.3
2018-Jun-19 03:30N 38°08' W 009°33'612.4
2018-Jun-19 03:00N 38°14' W 009°31'612.2
2018-Jun-19 02:30N 38°20' W 009°29'612.0
2018-Jun-19 02:00N 38°26' W 009°27'611.7
2018-Jun-19 01:30N 38°32' W 009°25'611.9
2018-Jun-19 01:00N 38°37' W 009°22'713.2
2018-Jun-19 00:30N 38°41' W 009°16'3 5.4
2018-Jun-18 23:51N 38°41' W 009°11'0 0.0
2018-Jun-18 23:06N 38°41' W 009°11'0 0.0
2018-Jun-18 22:59N 38°41' W 009°11'0 0.0
2018-Jun-18 21:41N 38°41' W 009°11'0 0.0
2018-Jun-18 21:14N 38°41' W 009°11'0 0.0
2018-Jun-18 20:14N 38°41' W 009°11'0 0.0
2018-Jun-18 19:11N 38°41' W 009°11'0 0.0
2018-Jun-18 18:59N 38°41' W 009°11'0 0.0
2018-Jun-18 18:29N 38°41' W 009°11'0 0.0
2018-Jun-18 18:00N 38°41' W 009°11'0 0.0
2018-Jun-18 17:11N 38°41' W 009°11'0 0.0
2018-Jun-18 16:56N 38°41' W 009°11'0 0.0
2018-Jun-18 16:26N 38°41' W 009°11'0 0.0
2018-Jun-18 13:59N 38°41' W 009°11'0 0.0
2018-Jun-18 12:38N 38°41' W 009°11'0 0.0
2018-Jun-18 12:30N 38°41' W 009°11'0 0.0
2018-Jun-18 11:18N 38°41' W 009°11'0 0.0
2018-Jun-18 10:42N 38°41' W 009°11'0 0.0
2018-Jun-18 10:27N 38°41' W 009°11'0 0.0
2018-Jun-18 09:33N 38°41' W 009°11'0 0.0
2018-Jun-18 09:27N 38°41' W 009°11'0 0.0
2018-Jun-18 08:45N 38°41' W 009°11'0 0.0
2018-Jun-18 08:27N 38°41' W 009°11'0 0.0
2018-Jun-18 07:54N 38°41' W 009°11'0 0.0
2018-Jun-18 07:30N 38°41' W 009°11'0 0.0
2018-Jun-18 07:00N 38°41' W 009°11'0 0.0
2018-Jun-18 06:15N 38°41' W 009°11'0 1.3
2018-Jun-18 06:00N 38°41' W 009°12'4 7.5
2018-Jun-18 05:30N 38°41' W 009°16'611.1
2018-Jun-18 05:00N 38°38' W 009°22'5 9.8
2018-Jun-18 04:30N 38°34' W 009°27'2 4.0
2018-Jun-18 04:00N 38°33' W 009°28'0 0.9
2018-Jun-18 03:30N 38°33' W 009°28'0 0.9
2018-Jun-18 03:00N 38°34' W 009°28'0 0.9
2018-Jun-18 02:30N 38°34' W 009°28'0 0.9
2018-Jun-18 02:00N 38°35' W 009°28'1 1.0
2018-Jun-18 01:30N 38°35' W 009°28'1 1.1
2018-Jun-18 01:00N 38°36' W 009°27'1 1.0
2018-Jun-18 00:30N 38°36' W 009°27'0 1.0
2018-Jun-18 00:00N 38°36' W 009°26'2 4.9
2018-Jun-17 23:30N 38°38' W 009°24'2 3.4
2018-Jun-17 23:00N 38°40' W 009°25'3 6.2
2018-Jun-17 22:30N 38°39' W 009°29'510.0
2018-Jun-17 22:00N 38°38' W 009°35'510.8
2018-Jun-17 21:31N 38°36' W 009°42'510.9
2018-Jun-17 21:01N 38°35' W 009°48'510.7
2018-Jun-17 20:30N 38°33' W 009°55'510.9
2018-Jun-17 20:01N 38°35' W 010°01'611.9
2018-Jun-17 19:31N 38°40' W 010°05'612.4
2018-Jun-17 19:00N 38°46' W 010°06'612.5
2018-Jun-17 18:30N 38°53' W 010°06'612.6
2018-Jun-17 18:00N 38°59' W 010°06'612.1
2018-Jun-17 17:31N 39°05' W 010°06'612.2
2018-Jun-17 17:00N 39°11' W 010°06'612.6
2018-Jun-17 16:30N 39°17' W 010°06'612.8
2018-Jun-17 16:01N 39°24' W 010°06'612.2
2018-Jun-17 15:30N 39°30' W 010°06'712.5
2018-Jun-17 14:57N 39°37' W 010°06'2312.4
2018-Jun-17 13:05N 39°60' W 010°06'112.5
2018-Jun-17 13:00N 40°01' W 010°06'53011.4
2018-Jun-15 14:33N 48°07' W 005°12'1 9.8
2018-Jun-15 14:29N 48°07' W 005°11'5 9.6
2018-Jun-15 14:00N 48°09' W 005°04'510.6
2018-Jun-15 13:30N 48°12' W 004°58'611.0
2018-Jun-15 13:00N 48°15' W 004°50'611.0
2018-Jun-15 12:30N 48°17' W 004°43'4 8.9
2018-Jun-15 12:00N 48°19' W 004°37'4 9.0
2018-Jun-15 11:30N 48°21' W 004°31'2 4.8
2018-Jun-15 11:00N 48°23' W 004°29'0 0.0
2018-Jun-15 10:30N 48°23' W 004°29'0 0.0
2018-Jun-15 09:58N 48°23' W 004°29'0 0.0
2018-Jun-15 09:28N 48°23' W 004°29'0 0.0
2018-Jun-15 08:58N 48°23' W 004°29'0 0.0
2018-Jun-15 08:28N 48°23' W 004°29'0 0.0
2018-Jun-15 07:58N 48°23' W 004°29'0 0.0
2018-Jun-15 07:28N 48°23' W 004°29'0 0.0
2018-Jun-15 06:58N 48°23' W 004°29'0 0.0
2018-Jun-15 06:29N 48°23' W 004°29'0 0.0
2018-Jun-15 05:59N 48°23' W 004°29'0 0.0
2018-Jun-15 05:29N 48°23' W 004°29'0 0.0
2018-Jun-15 04:59N 48°23' W 004°29'0 0.0
2018-Jun-15 04:29N 48°23' W 004°29'0 0.0
2018-Jun-15 03:59N 48°23' W 004°29'0 0.0
2018-Jun-15 03:29N 48°23' W 004°29'0 0.0
2018-Jun-15 02:59N 48°23' W 004°29'0 0.0
2018-Jun-15 02:29N 48°23' W 004°29'0 0.0
2018-Jun-15 01:59N 48°23' W 004°29'0 0.0
2018-Jun-15 01:29N 48°23' W 004°29'0 0.0
2018-Jun-15 00:59N 48°23' W 004°29'0 0.0
2018-Jun-15 00:29N 48°23' W 004°29'0 0.0
2018-Jun-14 23:59N 48°23' W 004°29'0 0.0
2018-Jun-14 23:29N 48°23' W 004°29'0 0.0
2018-Jun-14 22:59N 48°23' W 004°29'0 0.0
2018-Jun-14 22:29N 48°23' W 004°29'0 0.0
2018-Jun-14 21:59N 48°23' W 004°29'0 0.0
2018-Jun-14 21:29N 48°23' W 004°29'0 0.0
2018-Jun-14 20:59N 48°23' W 004°29'0 0.0
2018-Jun-14 20:29N 48°23' W 004°29'0 0.0
2018-Jun-14 19:59N 48°23' W 004°29'0 0.0
2018-Jun-14 19:29N 48°23' W 004°29'0 0.0
2018-Jun-14 18:59N 48°23' W 004°29'0 0.0
2018-Jun-14 18:29N 48°23' W 004°29'0 0.0
2018-Jun-14 17:59N 48°23' W 004°29'0 0.0
2018-Jun-14 17:29N 48°23' W 004°29'0 0.0
2018-Jun-14 16:59N 48°23' W 004°29'0 0.0
2018-Jun-14 16:29N 48°23' W 004°29'0 0.0
2018-Jun-14 15:58N 48°23' W 004°29'0 0.0
2018-Jun-14 15:28N 48°23' W 004°29'0 0.0
2018-Jun-14 14:58N 48°23' W 004°29'0 0.0
2018-Jun-14 14:28N 48°23' W 004°29'0 0.0
2018-Jun-14 13:58N 48°23' W 004°29'0 0.0
2018-Jun-14 13:28N 48°23' W 004°29'0 0.0
2018-Jun-14 12:59N 48°23' W 004°29'0 0.0
2018-Jun-14 12:28N 48°23' W 004°29'0 0.0
2018-Jun-14 11:58N 48°23' W 004°29'0 0.0
2018-Jun-14 11:29N 48°23' W 004°29'0 0.0
2018-Jun-14 10:58N 48°23' W 004°29'0 0.0
2018-Jun-14 10:28N 48°23' W 004°29'0 0.0
2018-Jun-14 09:59N 48°23' W 004°29'0 0.0
2018-Jun-14 09:28N 48°23' W 004°29'0 0.0
2018-Jun-14 08:59N 48°23' W 004°29'0 0.0
2018-Jun-14 08:28N 48°23' W 004°29'0 0.0
2018-Jun-14 08:00N 48°23' W 004°29'0 0.0
2018-Jun-14 07:30N 48°23' W 004°29'0 0.0
2018-Jun-14 07:00N 48°23' W 004°29'0 0.0
2018-Jun-14 06:30N 48°23' W 004°29'0 0.0
2018-Jun-14 06:00N 48°23' W 004°29'0 0.0
2018-Jun-14 05:30N 48°23' W 004°29'0 0.0
2018-Jun-14 05:00N 48°23' W 004°29'0 0.0
2018-Jun-14 04:30N 48°23' W 004°29'0 0.0
2018-Jun-14 04:00N 48°23' W 004°29'0 0.0
2018-Jun-14 03:30N 48°23' W 004°29'0 0.0
2018-Jun-14 03:00N 48°23' W 004°29'0 0.0
2018-Jun-14 02:30N 48°23' W 004°29'0 0.0
2018-Jun-14 02:00N 48°23' W 004°29'0 0.0
2018-Jun-14 01:30N 48°23' W 004°29'0 0.0
2018-Jun-14 01:00N 48°23' W 004°29'0 0.0
2018-Jun-14 00:30N 48°23' W 004°29'0 0.0
2018-Jun-14 00:00N 48°23' W 004°29'0 0.0
2018-Jun-13 23:30N 48°23' W 004°29'0 0.0
2018-Jun-13 23:00N 48°23' W 004°29'0 0.0
2018-Jun-13 22:29N 48°23' W 004°29'0 0.0
2018-Jun-13 21:59N 48°23' W 004°29'0 0.0
2018-Jun-13 21:29N 48°23' W 004°29'0 0.0
2018-Jun-13 20:59N 48°23' W 004°29'0 0.0
2018-Jun-13 20:29N 48°23' W 004°29'0 0.0
2018-Jun-13 19:59N 48°23' W 004°29'0 0.0
2018-Jun-13 19:29N 48°23' W 004°29'0 0.0
2018-Jun-13 18:59N 48°23' W 004°29'0 0.0
2018-Jun-13 18:29N 48°23' W 004°29'0 0.0
2018-Jun-13 17:59N 48°23' W 004°29'0 0.0
2018-Jun-13 17:29N 48°23' W 004°29'0 0.0
2018-Jun-13 16:59N 48°23' W 004°29'0 0.0
2018-Jun-13 16:29N 48°23' W 004°29'0 0.0
2018-Jun-13 15:59N 48°23' W 004°29'0 0.0
2018-Jun-13 15:29N 48°23' W 004°29'0 0.0
2018-Jun-13 14:59N 48°23' W 004°29'0 0.0
2018-Jun-13 14:29N 48°23' W 004°29'0 0.0
2018-Jun-13 13:59N 48°23' W 004°29'0 0.0
2018-Jun-13 13:29N 48°23' W 004°29'0 0.0
2018-Jun-13 12:59N 48°23' W 004°29'0 0.0
2018-Jun-13 12:29N 48°23' W 004°29'0 0.0
2018-Jun-13 11:59N 48°23' W 004°29'0 0.0
2018-Jun-13 11:29N 48°23' W 004°29'0 0.0
2018-Jun-13 10:59N 48°23' W 004°29'0 0.0
2018-Jun-13 10:29N 48°23' W 004°29'0 0.0
2018-Jun-13 09:59N 48°23' W 004°29'0 0.0
2018-Jun-13 09:29N 48°23' W 004°29'0 0.0
2018-Jun-13 08:59N 48°23' W 004°29'0 0.0
2018-Jun-13 08:29N 48°23' W 004°29'0 0.0
2018-Jun-13 07:59N 48°23' W 004°29'0 0.0
2018-Jun-13 07:29N 48°23' W 004°29'0 0.0
2018-Jun-13 06:59N 48°23' W 004°29'0 0.0
2018-Jun-13 06:29N 48°23' W 004°29'  
Track history (hours):
 
Tides and Currents Weather Stations Pressure Air Temp Water Temp Dewpoint Dewpoint Depression Visibility Wind Speed Wind Dir Waves Ship Positions

Kan 2

Last reported at 2018-Jun-23 06:26 UTC. Time now 2018-Jun-23 06:29 UTC.
Position N 36°56' E 012°42'.

Length 149 m; draft 5.7 m.

Type: Ship. MMSI: 572907000.

Date/timePositionNaut miles runAvg speedWind from/ knotsBaromVisibWave heightAir tempDewpointWater temp
2018-Jun-23 06:26N 36°56' E 012°42'612.5
2018-Jun-23 05:57N 36°57' E 012°34'612.8
2018-Jun-23 05:28N 36°58' E 012°27'612.2
2018-Jun-23 04:57N 36°59' E 012°19'612.3
2018-Jun-23 04:29N 37°00' E 012°12'612.4
2018-Jun-23 04:00N 37°02' E 012°05'12911.9
2018-Jun-22 17:14N 37°27' E 009°26'28312.0
2018-Jun-21 17:37N 37°04' E 003°32'111.1
2018-Jun-21 17:30N 37°04' E 003°31'611.0
2018-Jun-21 17:00N 37°03' E 003°24'510.9
2018-Jun-21 16:30N 37°02' E 003°17'911.0
2018-Jun-21 15:39N 37°01' E 003°05'210.9
2018-Jun-21 15:29N 37°01' E 003°03'611.0
2018-Jun-21 14:58N 37°00' E 002°56'511.1
2018-Jun-21 14:30N 36°59' E 002°50'611.2
2018-Jun-21 13:57N 36°59' E 002°42'611.1
2018-Jun-21 13:25N 36°58' E 002°35'610.9
2018-Jun-21 12:51N 36°57' E 002°27'6711.8
2018-Jun-21 07:07N 36°48' E 001°03'612.3
2018-Jun-21 06:38N 36°47' E 000°56'212.2
2018-Jun-21 06:30N 36°47' E 000°54'812.3
2018-Jun-21 05:52N 36°46' E 000°44'412.4
2018-Jun-21 05:30N 36°46' E 000°39'612.4
2018-Jun-21 05:00N 36°45' E 000°31'612.2
2018-Jun-21 04:30N 36°44' E 000°23'612.0
2018-Jun-21 04:00N 36°42' E 000°16'611.5
2018-Jun-21 03:30N 36°42' E 000°09'611.3
2018-Jun-21 02:58N 36°41' E 000°02'511.2
2018-Jun-21 02:30N 36°40' W 000°05'611.3
2018-Jun-21 02:00N 36°39' W 000°12'611.5
2018-Jun-21 01:29N 36°38' W 000°19'611.4
2018-Jun-21 01:00N 36°37' W 000°26'611.2
2018-Jun-21 00:30N 36°36' W 000°33'611.3
2018-Jun-21 00:00N 36°36' W 000°40'611.2
2018-Jun-20 23:30N 36°35' W 000°47'611.5
2018-Jun-20 22:59N 36°33' W 000°54'511.6
2018-Jun-20 22:31N 36°32' W 001°01'1111.4
2018-Jun-20 21:35N 36°31' W 001°14'111.3
2018-Jun-20 21:27N 36°30' W 001°15'511.4
2018-Jun-20 21:00N 36°29' W 001°22'1112.1
2018-Jun-20 20:06N 36°27' W 001°35'212.5
2018-Jun-20 19:57N 36°27' W 001°37'612.6
2018-Jun-20 19:30N 36°26' W 001°44'31811.5
2018-Jun-19 15:46N 36°21' W 008°19'512.8
2018-Jun-19 15:20N 36°23' W 008°26'412.7
2018-Jun-19 15:00N 36°24' W 008°31'1812.6
2018-Jun-19 13:33N 36°29' W 008°53'112.6
2018-Jun-19 13:28N 36°29' W 008°54'912.4
2018-Jun-19 12:45N 36°31' W 009°05'312.2
2018-Jun-19 12:30N 36°32' W 009°08'612.3
2018-Jun-19 12:00N 36°34' W 009°16'611.8
2018-Jun-19 11:29N 36°38' W 009°21'912.1
2018-Jun-19 10:46N 36°44' W 009°29'312.2
2018-Jun-19 10:30N 36°46' W 009°31'5411.9
2018-Jun-19 05:58N 37°40' W 009°40'611.8
2018-Jun-19 05:29N 37°46' W 009°41'711.6
2018-Jun-19 04:54N 37°52' W 009°39'511.8
2018-Jun-19 04:30N 37°57' W 009°37'611.9
2018-Jun-19 04:00N 38°02' W 009°35'612.3
2018-Jun-19 03:30N 38°08' W 009°33'612.4
2018-Jun-19 03:00N 38°14' W 009°31'612.2
2018-Jun-19 02:30N 38°20' W 009°29'612.0
2018-Jun-19 02:00N 38°26' W 009°27'611.7
2018-Jun-19 01:30N 38°32' W 009°25'611.9
2018-Jun-19 01:00N 38°37' W 009°22'713.2
2018-Jun-19 00:30N 38°41' W 009°16'3 5.4
2018-Jun-18 23:51N 38°41' W 009°11'0 0.0
2018-Jun-18 23:06N 38°41' W 009°11'0 0.0
2018-Jun-18 22:59N 38°41' W 009°11'0 0.0
2018-Jun-18 21:41N 38°41' W 009°11'0 0.0
2018-Jun-18 21:14N 38°41' W 009°11'0 0.0
2018-Jun-18 20:14N 38°41' W 009°11'0 0.0
2018-Jun-18 19:11N 38°41' W 009°11'0 0.0
2018-Jun-18 18:59N 38°41' W 009°11'0 0.0
2018-Jun-18 18:29N 38°41' W 009°11'0 0.0
2018-Jun-18 18:00N 38°41' W 009°11'0 0.0
2018-Jun-18 17:11N 38°41' W 009°11'0 0.0
2018-Jun-18 16:56N 38°41' W 009°11'0 0.0
2018-Jun-18 16:26N 38°41' W 009°11'0 0.0
2018-Jun-18 13:59N 38°41' W 009°11'0 0.0
2018-Jun-18 12:38N 38°41' W 009°11'0 0.0
2018-Jun-18 12:30N 38°41' W 009°11'0 0.0
2018-Jun-18 11:18N 38°41' W 009°11'0 0.0
2018-Jun-18 10:42N 38°41' W 009°11'0 0.0
2018-Jun-18 10:27N 38°41' W 009°11'0 0.0
2018-Jun-18 09:33N 38°41' W 009°11'0 0.0
2018-Jun-18 09:27N 38°41' W 009°11'0 0.0
2018-Jun-18 08:45N 38°41' W 009°11'0 0.0
2018-Jun-18 08:27N 38°41' W 009°11'0 0.0
2018-Jun-18 07:54N 38°41' W 009°11'0 0.0
2018-Jun-18 07:30N 38°41' W 009°11'0 0.0
2018-Jun-18 07:00N 38°41' W 009°11'0 0.0
2018-Jun-18 06:15N 38°41' W 009°11'0 1.3
2018-Jun-18 06:00N 38°41' W 009°12'4 7.5
2018-Jun-18 05:30N 38°41' W 009°16'611.1
2018-Jun-18 05:00N 38°38' W 009°22'5 9.8
2018-Jun-18 04:30N 38°34' W 009°27'2 4.0
2018-Jun-18 04:00N 38°33' W 009°28'0 0.9
2018-Jun-18 03:30N 38°33' W 009°28'0 0.9
2018-Jun-18 03:00N 38°34' W 009°28'0 0.9
2018-Jun-18 02:30N 38°34' W 009°28'0 0.9
2018-Jun-18 02:00N 38°35' W 009°28'1 1.0
2018-Jun-18 01:30N 38°35' W 009°28'1 1.1
2018-Jun-18 01:00N 38°36' W 009°27'1 1.0
2018-Jun-18 00:30N 38°36' W 009°27'0 1.0
2018-Jun-18 00:00N 38°36' W 009°26'2 4.9
2018-Jun-17 23:30N 38°38' W 009°24'2 3.4
2018-Jun-17 23:00N 38°40' W 009°25'3 6.2
2018-Jun-17 22:30N 38°39' W 009°29'510.0
2018-Jun-17 22:00N 38°38' W 009°35'510.8
2018-Jun-17 21:31N 38°36' W 009°42'510.9
2018-Jun-17 21:01N 38°35' W 009°48'510.7
2018-Jun-17 20:30N 38°33' W 009°55'510.9
2018-Jun-17 20:01N 38°35' W 010°01'611.9
2018-Jun-17 19:31N 38°40' W 010°05'612.4
2018-Jun-17 19:00N 38°46' W 010°06'612.5
2018-Jun-17 18:30N 38°53' W 010°06'612.6
2018-Jun-17 18:00N 38°59' W 010°06'612.1
2018-Jun-17 17:31N 39°05' W 010°06'612.2
2018-Jun-17 17:00N 39°11' W 010°06'612.6
2018-Jun-17 16:30N 39°17' W 010°06'612.8
2018-Jun-17 16:01N 39°24' W 010°06'612.2
2018-Jun-17 15:30N 39°30' W 010°06'712.5
2018-Jun-17 14:57N 39°37' W 010°06'2312.4
2018-Jun-17 13:05N 39°60' W 010°06'112.5
2018-Jun-17 13:00N 40°01' W 010°06'53011.4
2018-Jun-15 14:33N 48°07' W 005°12'1 9.8
2018-Jun-15 14:29N 48°07' W 005°11'5 9.6
2018-Jun-15 14:00N 48°09' W 005°04'510.6
2018-Jun-15 13:30N 48°12' W 004°58'611.0
2018-Jun-15 13:00N 48°15' W 004°50'611.0
2018-Jun-15 12:30N 48°17' W 004°43'4 8.9
2018-Jun-15 12:00N 48°19' W 004°37'4 9.0
2018-Jun-15 11:30N 48°21' W 004°31'2 4.8
2018-Jun-15 11:00N 48°23' W 004°29'0 0.0
2018-Jun-15 10:30N 48°23' W 004°29'0 0.0
2018-Jun-15 09:58N 48°23' W 004°29'0 0.0
2018-Jun-15 09:28N 48°23' W 004°29'0 0.0
2018-Jun-15 08:58N 48°23' W 004°29'0 0.0
2018-Jun-15 08:28N 48°23' W 004°29'0 0.0
2018-Jun-15 07:58N 48°23' W 004°29'0 0.0
2018-Jun-15 07:28N 48°23' W 004°29'0 0.0
2018-Jun-15 06:58N 48°23' W 004°29'0 0.0
2018-Jun-15 06:29N 48°23' W 004°29'0 0.0
2018-Jun-15 05:59N 48°23' W 004°29'0 0.0
2018-Jun-15 05:29N 48°23' W 004°29'0 0.0
2018-Jun-15 04:59N 48°23' W 004°29'0 0.0
2018-Jun-15 04:29N 48°23' W 004°29'0 0.0
2018-Jun-15 03:59N 48°23' W 004°29'0 0.0
2018-Jun-15 03:29N 48°23' W 004°29'0 0.0
2018-Jun-15 02:59N 48°23' W 004°29'0 0.0
2018-Jun-15 02:29N 48°23' W 004°29'0 0.0
2018-Jun-15 01:59N 48°23' W 004°29'0 0.0
2018-Jun-15 01:29N 48°23' W 004°29'0 0.0
2018-Jun-15 00:59N 48°23' W 004°29'0 0.0
2018-Jun-15 00:29N 48°23' W 004°29'0 0.0
2018-Jun-14 23:59N 48°23' W 004°29'0 0.0
2018-Jun-14 23:29N 48°23' W 004°29'0 0.0
2018-Jun-14 22:59N 48°23' W 004°29'0 0.0
2018-Jun-14 22:29N 48°23' W 004°29'0 0.0
2018-Jun-14 21:59N 48°23' W 004°29'0 0.0
2018-Jun-14 21:29N 48°23' W 004°29'0 0.0
2018-Jun-14 20:59N 48°23' W 004°29'0 0.0
2018-Jun-14 20:29N 48°23' W 004°29'0 0.0
2018-Jun-14 19:59N 48°23' W 004°29'0 0.0
2018-Jun-14 19:29N 48°23' W 004°29'0 0.0
2018-Jun-14 18:59N 48°23' W 004°29'0 0.0
2018-Jun-14 18:29N 48°23' W 004°29'0 0.0
2018-Jun-14 17:59N 48°23' W 004°29'0 0.0
2018-Jun-14 17:29N 48°23' W 004°29'0 0.0
2018-Jun-14 16:59N 48°23' W 004°29'0 0.0
2018-Jun-14 16:29N 48°23' W 004°29'0 0.0
2018-Jun-14 15:58N 48°23' W 004°29'0 0.0
2018-Jun-14 15:28N 48°23' W 004°29'0 0.0
2018-Jun-14 14:58N 48°23' W 004°29'0 0.0
2018-Jun-14 14:28N 48°23' W 004°29'0 0.0
2018-Jun-14 13:58N 48°23' W 004°29'0 0.0
2018-Jun-14 13:28N 48°23' W 004°29'0 0.0
2018-Jun-14 12:59N 48°23' W 004°29'0 0.0
2018-Jun-14 12:28N 48°23' W 004°29'0 0.0
2018-Jun-14 11:58N 48°23' W 004°29'0 0.0
2018-Jun-14 11:29N 48°23' W 004°29'0 0.0
2018-Jun-14 10:58N 48°23' W 004°29'0 0.0
2018-Jun-14 10:28N 48°23' W 004°29'0 0.0
2018-Jun-14 09:59N 48°23' W 004°29'0 0.0
2018-Jun-14 09:28N 48°23' W 004°29'0 0.0
2018-Jun-14 08:59N 48°23' W 004°29'0 0.0
2018-Jun-14 08:28N 48°23' W 004°29'0 0.0
2018-Jun-14 08:00N 48°23' W 004°29'0 0.0
2018-Jun-14 07:30N 48°23' W 004°29'0 0.0
2018-Jun-14 07:00N 48°23' W 004°29'0 0.0
2018-Jun-14 06:30N 48°23' W 004°29'0 0.0
2018-Jun-14 06:00N 48°23' W 004°29'0 0.0
2018-Jun-14 05:30N 48°23' W 004°29'0 0.0
2018-Jun-14 05:00N 48°23' W 004°29'0 0.0
2018-Jun-14 04:30N 48°23' W 004°29'0 0.0
2018-Jun-14 04:00N 48°23' W 004°29'0 0.0
2018-Jun-14 03:30N 48°23' W 004°29'0 0.0
2018-Jun-14 03:00N 48°23' W 004°29'0 0.0
2018-Jun-14 02:30N 48°23' W 004°29'0 0.0
2018-Jun-14 02:00N 48°23' W 004°29'0 0.0
2018-Jun-14 01:30N 48°23' W 004°29'0 0.0
2018-Jun-14 01:00N 48°23' W 004°29'0 0.0
2018-Jun-14 00:30N 48°23' W 004°29'0 0.0
2018-Jun-14 00:00N 48°23' W 004°29'0 0.0
2018-Jun-13 23:30N 48°23' W 004°29'0 0.0
2018-Jun-13 23:00N 48°23' W 004°29'0 0.0
2018-Jun-13 22:29N 48°23' W 004°29'0 0.0
2018-Jun-13 21:59N 48°23' W 004°29'0 0.0
2018-Jun-13 21:29N 48°23' W 004°29'0 0.0
2018-Jun-13 20:59N 48°23' W 004°29'0 0.0
2018-Jun-13 20:29N 48°23' W 004°29'0 0.0
2018-Jun-13 19:59N 48°23' W 004°29'0 0.0
2018-Jun-13 19:29N 48°23' W 004°29'0 0.0
2018-Jun-13 18:59N 48°23' W 004°29'0 0.0
2018-Jun-13 18:29N 48°23' W 004°29'0 0.0
2018-Jun-13 17:59N 48°23' W 004°29'0 0.0
2018-Jun-13 17:29N 48°23' W 004°29'0 0.0
2018-Jun-13 16:59N 48°23' W 004°29'0 0.0
2018-Jun-13 16:29N 48°23' W 004°29'0 0.0
2018-Jun-13 15:59N 48°23' W 004°29'0 0.0
2018-Jun-13 15:29N 48°23' W 004°29'0 0.0
2018-Jun-13 14:59N 48°23' W 004°29'0 0.0
2018-Jun-13 14:29N 48°23' W 004°29'0 0.0
2018-Jun-13 13:59N 48°23' W 004°29'0 0.0
2018-Jun-13 13:29N 48°23' W 004°29'0 0.0
2018-Jun-13 12:59N 48°23' W 004°29'0 0.0
2018-Jun-13 12:29N 48°23' W 004°29'0 0.0
2018-Jun-13 11:59N 48°23' W 004°29'0 0.0
2018-Jun-13 11:29N 48°23' W 004°29'0 0.0
2018-Jun-13 10:59N 48°23' W 004°29'0 0.0
2018-Jun-13 10:29N 48°23' W 004°29'0 0.0
2018-Jun-13 09:59N 48°23' W 004°29'0 0.0
2018-Jun-13 09:29N 48°23' W 004°29'0 0.0
2018-Jun-13 08:59N 48°23' W 004°29'0 0.0
2018-Jun-13 08:29N 48°23' W 004°29'0 0.0
2018-Jun-13 07:59N 48°23' W 004°29'0 0.0
2018-Jun-13 07:29N 48°23' W 004°29'0 0.0
2018-Jun-13 06:59N 48°23' W 004°29'0 0.0
2018-Jun-13 06:29N 48°23' W 004°29'  

Dump ship's entire track history